Aeroporto :
LOGIN :

Iscrizione | Disclaimer

   EN    FR    IT 

 










Sommario :    VFR   VFR Marginale   IFR   IFR Intensivo   IFR Molto Intensivo
Visibilità : 
Base nubi : 
>= 8 km
>= 3000ft
5 / 8 km
1000 / 3000 ft
1500m / 5 km
500 / 1000 ft
800 / 1500m
200 / 500 ft
< 800m
< 200 ft
Simboli :   Temporali  Nebbia  Neve Forte  Precipitazioni Forti  Vento > 20 kt
SIGMETs :   Varie  Temporali  Ghiacco  Turbolenza  Onda orograficha  Ceneri Vulcaniche






- Altitudine del aeroporto : 1895 ft


LSMM - Meiringen

ULTIMO METAR :
  • 250350Z AUTO 00000KT 9999NDV SCT071 OVC081 09/09 Q1019 RMK

METARs OBSOLETI :
  • 250320Z AUTO 00000KT 9999NDV OVC070 10/09 Q1019 RMK
  • 250250Z AUTO 11001KT 9999NDV SCT071 OVC110 09/09 Q1019 RMK
  • 250220Z AUTO 00000KT 9999NDV FEW026 OVC120 10/09 Q1019 RMK
  • 250150Z AUTO 00000KT 9999NDV SCT024 OVC120 10/09 Q1019 RMK
  • 250120Z AUTO VRB01KT 9999NDV BKN020 OVC110 10/09 Q1019 RMK
  • 250050Z AUTO VRB01KT 9999NDV FEW007 BKN020 OVC110 10/10 Q1020 RMK
  • 250020Z AUTO 06003KT 030V100 9999NDV FEW006 BKN010 OVC019 10/10 Q1020 RMK
  • 242350Z AUTO 09002KT 9999NDV SCT008 OVC098 10/10 Q1020 RMK
  • 242320Z AUTO 00000KT 9999NDV SCT007 BKN063 OVC071 10/09 Q1020 RMK
  • 242250Z AUTO 25004KT 220V290 9999NDV FEW008 OVC067 10/09 Q1020 RMK

Previsioni scadute.



MetMap, La meteo Aeronautica in un colpo d'occhio ! - Copyright ORBIFLY Dicembre 2007 - Disclaimer

ORBIFLY MET'MAP TEAM :

Programmazione e sviluppo : Alexandra Zaïnal
Concezione : Baudouin d'Aumeries
Supporto tecnico e logistico : Manuel Goepfert
Aiuto : Marc-Olivier Méhu
Aiuto per la traduzione : Arnaldo La Scala




FONTI E CREDITI :

   NOAA